Terminal Aerodrome Forecast
Issued by NWS

Home | Current Version | Previous Version | Text Only | Print | Product List | Glossary On
Versions: 1 2 3 4 5 6 7 8 9 10 11 12 13 14 15 16
663
FTUS42 KFFC 231120
TAFPDK
TAF
KPDK 231120Z 2312/2412 05003KT P6SM FEW100 SCT250
      TEMPO 2312/2313 6SM BR
     FM231500 05005KT P6SM FEW035
     FM231800 07006KT P6SM SCT050
     FM240100 00000KT P6SM FEW050 SCT250=

USA.gov is the U.S. government's official web portal to all federal, state and local government web resources and services.